KMVE/MVE METAR and TAF weather

Enter ICAO airport designator
Station Type Date Time Source
KMVE METAR 2019/10/20 19:36 UTC NOAA

KMVE 201936Z AUTO 13004KT 10SM SCT120 15/03 A2976 RMK AO2


Station Type Date Time Source
KMVE Decoded METAR 2019/10/20 19:36 UTC NOAA

Montevideo, Montevideo-Chippewa County Airport, MN, United States (KMVE) 44-58N 095-43W
Oct 20, 2019 - 03:36 PM EDT / 2019.10.20 1936 UTC
Wind: from the SE (130 degrees) at 5 MPH (4 KT):0
Visibility: 10 mile(s):0
Sky conditions: partly cloudy
Temperature: 59 F (15 C)
Dew Point: 37 F (3 C)
Relative Humidity: 44%
Pressure (altimeter): 29.76 in. Hg (1007 hPa)
ob: KMVE 201936Z AUTO 13004KT 10SM SCT120 15/03 A2976 RMK AO2
cycle: 19

Station Type Date Time Source
KMVE TAF UTC NOAA

Error!

Example: see airport list